Time;durP1;ratioP1;P1;durP2;ratioP2;P2;SDS_P1;SDS_P2;PMS_P1;PMS_P2;Temp;Humidity;BMP_temperature;BMP_pressure;BME280_temperature;BME280_humidity;BME280_pressure;Samples;Min_cycle;Max_cycle;Signal;HPM_P1;HPM_P2
2022/10/06 00:00:34;;;;;;;19.90;13.00;;;19.00;95.10;;;19.04;63.32;99387.72;5087511;28;20043;-72
2022/10/06 00:03:23;;;;;;;19.70;10.88;;;19.00;95.10;;;19.04;63.43;99392.41;5088815;28;20048;-73
2022/10/06 00:05:50;;;;;;;18.40;10.18;;;19.00;95.10;;;19.02;64.19;99398.22;5064251;28;20110;-73
2022/10/06 00:08:17;;;;;;;16.67;9.68;;;19.00;95.30;;;19.06;64.24;99398.41;5081372;28;20043;-73
2022/10/06 00:10:43;;;;;;;18.27;10.70;;;19.00;95.40;;;19.05;64.10;99399.53;5065316;28;20032;-73
2022/10/06 00:13:09;;;;;;;19.90;11.13;;;19.00;95.30;;;19.03;63.75;99391.59;5083309;28;20521;-73
2022/10/06 00:15:35;;;;;;;18.65;9.82;;;19.00;95.20;;;19.04;63.70;99397.91;5073764;28;20044;-73
2022/10/06 00:18:01;;;;;;;18.10;10.55;;;19.00;95.20;;;19.01;63.58;99393.84;5101131;28;20069;-73
2022/10/06 00:20:27;;;;;;;17.42;11.48;;;19.00;95.20;;;19.01;63.63;99398.53;5097555;28;20050;-73
2022/10/06 00:22:55;;;;;;;17.35;10.77;;;18.90;95.20;;;19.01;64.07;99388.34;5068127;28;20109;-73
2022/10/06 00:25:22;;;;;;;15.77;10.02;;;19.00;95.40;;;19.01;64.48;99396.59;5056276;28;20092;-73
2022/10/06 00:27:49;;;;;;;16.83;10.07;;;19.00;95.40;;;19.01;63.90;99399.34;5056994;28;20103;-73
2022/10/06 00:30:24;;;;;;;19.08;11.55;;;19.00;95.20;;;18.96;64.08;99398.69;5101741;28;20036;-73
2022/10/06 00:33:01;;;;;;;17.15;9.80;;;18.90;95.20;;;18.98;63.78;99400.00;5100117;28;20048;-73
2022/10/06 00:35:31;;;;;;;17.77;10.55;;;19.00;95.20;;;18.94;63.91;99398.19;5075097;28;20051;-73
2022/10/06 00:37:57;;;;;;;20.00;10.13;;;18.90;95.20;;;18.94;64.48;99395.44;5102857;28;20047;-73
2022/10/06 00:40:23;;;;;;;15.80;10.05;;;18.90;95.40;;;19.00;64.28;99394.97;5104694;28;20044;-73
2022/10/06 00:42:53;;;;;;;17.13;9.80;;;18.90;95.40;;;19.01;64.08;99401.28;5096357;28;20089;-73
2022/10/06 00:45:35;;;;;;;16.45;10.38;;;19.00;95.40;;;18.93;63.97;99397.38;5101800;28;20072;-73
2022/10/06 00:48:06;;;;;;;;;;;18.90;95.20;;;18.94;64.03;99400.94;5101751;28;20040;-74
2022/10/06 00:50:32;;;;;;;17.77;10.95;;;18.90;95.20;;;18.95;63.69;99402.53;5070125;28;19924;-73
2022/10/06 00:52:58;;;;;;;14.82;9.15;;;18.90;95.20;;;18.97;63.69;99397.53;5057090;28;20044;-73
2022/10/06 00:55:25;;;;;;;16.83;10.07;;;18.90;95.20;;;18.93;64.30;99400.13;5084272;28;20040;-73
2022/10/06 00:57:51;;;;;;;17.20;9.05;;;18.90;95.40;;;18.95;64.56;99400.59;5085283;28;20060;-73
2022/10/06 01:00:18;;;;;;;20.83;9.90;;;19.00;95.40;;;18.96;63.49;99398.69;5082771;28;20046;-73
2022/10/06 01:02:55;;;;;;;15.18;10.43;;;19.00;95.20;;;18.92;63.89;99403.97;5073092;28;20464;-73
2022/10/06 01:05:27;;;;;;;19.08;10.25;;;18.90;95.20;;;18.87;64.02;99410.41;5089201;28;20085;-73
2022/10/06 01:07:53;;;;;;;14.43;9.63;;;18.80;95.20;;;18.87;63.88;99415.09;5072045;28;20059;-73
2022/10/06 01:10:19;;;;;;;20.20;10.65;;;18.80;95.20;;;18.92;64.36;99412.22;5083971;28;20036;-73
2022/10/06 01:12:45;;;;;;;15.38;8.73;;;18.80;95.40;;;18.92;64.31;99416.91;5100924;28;20392;-73
2022/10/06 01:15:11;;;;;;;16.05;9.80;;;18.80;95.40;;;18.87;64.33;99424.16;5097783;28;20520;-73
2022/10/06 01:17:51;;;;;;;19.15;9.43;;;18.90;95.30;;;18.87;64.12;99432.41;5051877;28;20043;-73
2022/10/06 01:20:19;;;;;;;15.20;9.30;;;18.80;95.20;;;18.85;63.91;99420.94;5085363;28;20047;-73
2022/10/06 01:22:59;;;;;;;14.73;9.98;;;18.80;95.20;;;18.84;63.91;99427.53;5067417;28;20098;-73
2022/10/06 01:25:25;;;;;;;14.38;9.45;;;18.80;95.20;;;18.86;64.03;99427.22;5085343;28;20042;-73
2022/10/06 01:27:54;;;;;;;18.73;9.15;;;18.80;95.70;;;18.87;64.45;99432.41;5083889;28;20036;-73
2022/10/06 01:30:32;;;;;;;16.10;9.88;;;18.80;95.40;;;18.88;64.13;99433.25;5069381;28;20035;-73
2022/10/06 01:32:59;;;;;;;14.48;9.05;;;18.80;95.40;;;18.81;64.35;99436.41;5078742;28;20088;-73
2022/10/06 01:35:24;;;;;;;14.25;9.90;;;18.70;95.20;;;18.84;63.88;99438.53;5065713;28;20036;-73
2022/10/06 01:37:50;;;;;;;16.00;10.63;;;18.80;95.30;;;18.84;64.08;99438.53;5081464;28;20035;-73
2022/10/06 01:40:18;;;;;;;18.17;10.05;;;18.80;95.20;;;18.82;63.74;99427.03;5103667;28;20040;-73
2022/10/06 01:42:43;;;;;;;14.48;8.98;;;18.70;95.20;;;18.84;64.34;99430.28;5100319;28;20054;-73
2022/10/06 01:45:09;;;;;;;14.50;9.15;;;18.70;95.40;;;18.84;64.33;99426.72;5100191;28;20040;-73
2022/10/06 01:47:36;;;;;;;15.05;8.38;;;18.80;95.40;;;18.86;63.99;99430.78;5099613;28;20032;-73
2022/10/06 01:50:03;;;;;;;13.55;9.07;;;18.70;95.30;;;18.82;63.88;99432.53;5091026;28;20054;-73
2022/10/06 01:52:29;;;;;;;15.10;9.32;;;18.70;95.10;;;18.80;63.70;99437.56;5084160;28;20047;-73
2022/10/06 01:54:55;;;;;;;17.27;8.90;;;18.80;95.20;;;18.76;63.92;99442.03;5065051;28;20050;-73
2022/10/06 01:57:21;;;;;;;11.88;9.05;;;18.70;95.20;;;18.79;63.92;99449.66;5100409;28;20048;-73
2022/10/06 01:59:47;;;;;;;13.98;8.77;;;18.70;95.30;;;18.78;64.61;99448.03;5099659;28;20058;-73
2022/10/06 02:02:13;;;;;;;14.80;9.20;;;18.70;95.40;;;18.79;64.61;99446.09;5103549;28;20068;-73
2022/10/06 02:04:39;;;;;;;16.98;10.05;;;18.70;95.40;;;18.77;64.17;99443.66;5097349;28;20148;-73
2022/10/06 02:07:05;;;;;;;16.85;9.27;;;18.70;95.20;;;18.74;64.20;99449.75;5098991;28;20043;-73
2022/10/06 02:09:31;;;;;;;14.70;8.63;;;18.70;95.20;;;18.73;63.86;99441.81;5101330;28;20047;-73
2022/10/06 02:11:57;;;;;;;12.57;8.48;;;18.70;95.20;;;18.76;63.93;99447.53;5103997;28;20058;-73
2022/10/06 02:14:23;;;;;;;13.85;9.25;;;18.70;95.60;;;18.71;63.93;99444.06;5102096;28;20139;-73
2022/10/06 02:16:49;;;;;;;14.13;8.70;;;18.60;95.30;;;18.76;64.45;99443.97;5097378;28;20044;-73
2022/10/06 02:19:15;;;;;;;13.30;8.85;;;18.60;95.40;;;18.77;64.36;99446.41;5098730;28;20042;-73
2022/10/06 02:21:41;;;;;;;14.45;8.65;;;18.70;95.40;;;18.74;63.92;99438.75;5095935;28;20821;-73
2022/10/06 02:24:07;;;;;;;11.18;8.27;;;18.70;95.20;;;18.74;63.82;99448.94;5100098;28;20048;-73
2022/10/06 02:26:33;;;;;;;12.25;7.63;;;18.70;95.20;;;18.75;63.70;99456.91;5097179;28;20066;-73
2022/10/06 02:29:00;;;;;;;12.32;8.10;;;18.60;95.20;;;18.73;63.75;99453.63;5098883;28;20047;-73
2022/10/06 02:31:26;;;;;;;9.98;7.53;;;18.60;95.20;;;18.75;64.34;99450.56;5096269;28;20059;-73
2022/10/06 02:33:52;;;;;;;16.23;9.57;;;18.60;95.40;;;18.76;64.20;99446.72;5080208;28;20833;-73
2022/10/06 02:36:18;;;;;;;16.35;8.82;;;18.60;95.30;;;18.69;64.11;99449.88;5104063;28;20040;-73
2022/10/06 02:38:44;;;;;;;14.00;8.90;;;18.70;95.20;;;18.69;63.98;99457.31;5085941;28;20974;-73
2022/10/06 02:41:11;;;;;;;12.63;8.68;;;18.60;95.20;;;18.69;63.73;99454.56;5081581;28;20237;-73
2022/10/06 02:43:37;;;;;;;11.93;7.50;;;18.60;95.10;;;18.69;63.66;99457.31;5096659;28;20055;-73
2022/10/06 02:46:06;;;;;;;13.57;7.78;;;18.60;95.20;;;18.64;64.12;99456.28;5097830;28;20344;-73
2022/10/06 02:48:33;;;;;;;13.70;8.27;;;18.60;95.30;;;18.69;64.19;99463.59;5098941;28;20036;-73
2022/10/06 02:51:05;;;;;;;14.50;9.23;;;18.60;95.40;;;18.71;64.42;99463.31;5081473;28;20115;-73
2022/10/06 02:53:31;;;;;;;14.68;8.57;;;18.60;95.40;;;18.68;63.91;99459.25;5099231;28;20041;-73
2022/10/06 02:56:06;;;;;;;12.77;8.25;;;18.60;95.20;;;18.66;63.95;99456.00;5099721;28;20043;-73
2022/10/06 02:58:33;;;;;;;14.63;9.02;;;18.60;95.20;;;18.64;63.91;99460.97;5069292;28;20488;-73
2022/10/06 03:01:08;;;;;;;11.23;7.95;;;18.60;95.20;;;18.62;63.53;99463.22;5081572;28;20995;-73
2022/10/06 03:03:34;;;;;;;10.63;7.50;;;18.60;95.10;;;18.65;64.22;99457.94;5079270;28;20910;-73
2022/10/06 03:06:20;;;;;;;13.68;8.63;;;18.60;95.30;;;18.70;64.21;99458.91;5062569;28;20082;-73
2022/10/06 03:09:00;;;;;;;10.63;7.35;;;18.60;95.20;;;18.68;63.77;99466.69;5079449;28;20043;-73
2022/10/06 03:11:28;;;;;;;11.93;7.35;;;18.60;95.20;;;18.64;63.87;99464.53;5098726;28;20043;-73
2022/10/06 03:13:54;;;;;;;10.88;7.40;;;18.60;95.10;;;18.64;63.67;99477.47;5072351;28;20051;-73
2022/10/06 03:16:28;;;;;;;10.20;7.20;;;18.60;95.10;;;18.64;63.55;99474.72;5098190;28;20064;-73
2022/10/06 03:18:55;;;;;;;18.45;9.27;;;18.50;95.10;;;18.61;63.93;99472.59;5104920;28;20047;-73
2022/10/06 03:21:29;;;;;;;13.55;8.18;;;18.50;95.20;;;18.63;64.08;99476.66;5067526;28;20075;-73
2022/10/06 03:23:56;;;;;;;9.73;7.20;;;18.60;95.30;;;18.60;64.28;99470.97;5084276;28;20209;-73
2022/10/06 03:26:26;;;;;;;11.82;7.50;;;18.60;95.20;;;18.63;63.69;99470.34;5072064;28;20897;-73
2022/10/06 03:28:53;;;;;;;11.77;8.38;;;18.60;95.10;;;18.63;63.63;99473.09;5077157;28;20051;-73
2022/10/06 03:31:19;;;;;;;14.48;8.07;;;18.60;95.20;;;18.61;63.65;99467.09;5046470;28;20039;-73
2022/10/06 03:33:46;;;;;;;13.57;8.82;;;18.50;95.10;;;18.60;63.81;99473.72;5085592;28;20065;-73
2022/10/06 03:36:14;;;;;;;10.50;6.90;;;18.50;95.20;;;18.64;64.04;99480.22;5095295;28;20043;-73
2022/10/06 03:38:40;;;;;;;12.23;7.13;;;18.50;95.30;;;18.64;64.12;99478.28;5065692;28;20478;-73
2022/10/06 03:41:15;;;;;;;11.85;7.15;;;18.50;95.40;;;18.58;63.89;99471.28;5099882;28;20050;-73
2022/10/06 03:43:47;;;;;;;12.68;8.15;;;18.50;95.20;;;18.58;63.68;99473.22;5085407;28;20054;-73
2022/10/06 03:46:15;;;;;;;11.05;6.97;;;18.50;95.20;;;18.61;63.64;99467.91;5086438;28;20047;-73
2022/10/06 03:48:42;;;;;;;11.55;7.20;;;18.50;95.10;;;18.55;63.42;99468.34;5101956;28;20055;-73
2022/10/06 03:51:17;;;;;;;10.02;6.20;;;18.40;95.10;;;18.55;64.00;99462.88;5101672;28;20392;-73
2022/10/06 03:53:45;;;;;;;9.40;6.75;;;18.50;95.30;;;18.57;63.53;99468.84;5092013;28;20039;-73
2022/10/06 03:56:23;;;;;;;8.40;6.53;;;18.50;95.10;;;18.58;62.71;99473.22;5083853;28;20063;-73
2022/10/06 03:58:58;;;;;;;13.05;7.43;;;18.50;94.80;;;18.57;62.76;99466.94;5093878;28;20476;-73
2022/10/06 04:01:40;;;;;;;10.90;6.45;;;18.50;94.80;;;18.54;62.43;99475.75;5080255;28;20048;-73
2022/10/06 04:04:07;;;;;;;8.70;6.63;;;18.50;94.80;;;18.53;62.85;99482.38;5099227;28;20043;-73
2022/10/06 04:06:35;;;;;;;12.27;6.32;;;18.50;94.90;;;18.57;63.20;99482.56;5082625;28;20101;-73
2022/10/06 04:09:01;;;;;;;10.77;6.53;;;18.50;95.40;;;18.55;62.76;99480.16;5068336;28;20040;-73
2022/10/06 04:11:33;;;;;;;10.25;6.90;;;18.50;94.80;;;18.52;62.47;99482.69;5099282;28;20118;-72
2022/10/06 04:14:04;;;;;;;10.25;7.13;;;18.50;94.70;;;18.55;61.98;99485.66;5087362;28;20039;-72
2022/10/06 04:16:47;;;;;;;7.45;5.60;;;18.50;94.60;;;18.56;61.78;99486.47;5083927;28;20035;-72
2022/10/06 04:19:14;;;;;;;8.70;6.20;;;18.50;94.40;;;18.52;61.91;99490.94;5100154;28;20118;-72
2022/10/06 04:21:42;;;;;;;10.70;6.72;;;18.50;94.60;;;18.54;62.66;99491.44;5088943;28;20066;-72
2022/10/06 04:24:09;;;;;;;9.25;6.10;;;18.50;94.80;;;18.55;62.73;99493.09;5085353;28;20130;-72
2022/10/06 04:26:38;;;;;;;9.57;5.72;;;18.40;94.80;;;18.52;62.31;99493.69;5091170;28;20089;-72
2022/10/06 04:29:04;;;;;;;9.77;6.80;;;18.50;94.60;;;18.45;61.76;99494.13;5068404;28;20040;-72
2022/10/06 04:31:35;;;;;;;8.82;5.97;;;18.40;94.40;;;18.47;61.42;99491.03;5072641;28;20074;-72
2022/10/06 04:34:02;;;;;;;8.85;6.07;;;18.40;94.30;;;18.44;61.55;99496.06;5087773;28;20039;-72
2022/10/06 04:36:30;;;;;;;10.25;6.60;;;18.40;94.40;;;18.50;62.03;99501.44;5099441;28;20499;-72
2022/10/06 04:38:58;;;;;;;8.38;5.57;;;18.40;94.70;;;18.46;62.72;99495.72;5104260;28;20092;-72
2022/10/06 04:41:27;;;;;;;10.05;5.70;;;18.40;94.80;;;18.52;62.18;99505.50;5084789;28;20039;-72
2022/10/06 04:43:53;;;;;;;8.65;6.72;;;18.40;94.70;;;18.48;61.69;99503.69;5106383;28;20075;-73
2022/10/06 04:46:20;;;;;;;7.90;5.55;;;18.40;94.40;;;18.47;61.31;99505.63;5090546;28;20484;-73
2022/10/06 04:48:48;;;;;;;9.75;6.55;;;18.40;94.30;;;18.47;61.01;99504.78;5102915;28;20040;-73
2022/10/06 04:51:16;;;;;;;6.00;5.10;;;18.40;94.40;;;18.48;61.07;99512.72;5099069;28;20039;-73
2022/10/06 04:53:43;;;;;;;7.05;5.15;;;18.40;94.30;;;18.52;61.66;99513.75;5085634;28;20039;-73
2022/10/06 04:56:14;;;;;;;8.68;5.97;;;18.40;94.60;;;18.50;61.48;99526.16;5064788;28;20115;-73
2022/10/06 04:58:43;;;;;;;7.15;5.63;;;18.40;94.50;;;18.52;61.22;99518.41;5086712;28;20084;-73
2022/10/06 05:01:25;;;;;;;8.48;6.28;;;18.40;94.30;;;18.44;61.11;99523.53;5104423;28;20052;-72
2022/10/06 05:03:57;;;;;;;8.18;5.90;;;18.40;94.30;;;18.46;61.08;99525.16;5088825;28;20077;-74
2022/10/06 05:06:24;;;;;;;9.07;6.78;;;18.40;94.40;;;18.46;60.60;99525.94;5100100;28;20122;-73
2022/10/06 05:08:58;;;;;;;8.02;5.82;;;18.40;94.30;;;18.42;61.35;99519.47;5090954;28;20048;-73
2022/10/06 05:11:24;;;;;;;7.45;5.50;;;18.30;94.30;;;18.49;61.03;99519.84;5081119;28;20044;-73
2022/10/06 05:13:53;;;;;;;8.25;4.95;;;18.40;94.30;;;18.49;61.45;99522.59;5098554;28;20040;-74
2022/10/06 05:16:19;;;;;;;9.73;6.13;;;18.40;94.40;;;18.45;60.66;99524.34;5082289;28;20506;-74
2022/10/06 05:18:46;;;;;;;7.20;5.25;;;18.40;94.30;;;18.48;60.58;99534.69;5077459;28;20044;-73
2022/10/06 05:21:17;;;;;;;7.13;5.20;;;18.40;94.30;;;18.49;60.44;99533.56;5102421;28;20039;-73
2022/10/06 05:23:43;;;;;;;7.03;5.55;;;18.40;94.30;;;18.49;60.40;99541.00;5104690;28;20039;-73
2022/10/06 05:26:15;;;;;;;6.75;5.25;;;18.40;94.30;;;18.51;60.83;99542.31;5082078;28;20036;-73
2022/10/06 05:28:41;;;;;;;8.65;5.60;;;18.30;94.30;;;18.54;60.66;99544.44;5052748;28;20046;-73
2022/10/06 05:31:16;;;;;;;10.13;5.30;;;18.40;94.30;;;18.53;60.32;99542.03;5084144;28;20765;-73
2022/10/06 05:33:42;;;;;;;6.97;5.55;;;18.40;94.30;;;18.51;60.10;99545.06;5081781;28;20050;-73
2022/10/06 05:36:16;;;;;;;7.05;5.38;;;18.40;94.20;;;18.51;59.54;99544.25;5080880;28;20066;-75
2022/10/06 05:38:43;;;;;;;9.77;6.05;;;18.40;94.10;;;18.51;59.63;99544.25;5085657;28;20043;-74
2022/10/06 05:41:10;;;;;;;5.85;5.15;;;18.40;94.00;;;18.57;60.16;99548.50;5065718;28;20052;-75
2022/10/06 05:43:37;;;;;;;6.30;5.38;;;18.40;94.30;;;18.55;60.46;99545.28;5084820;28;20040;-75
2022/10/06 05:46:18;;;;;;;8.82;6.30;;;18.40;94.30;;;18.57;60.16;99548.50;5089028;28;20487;-75
2022/10/06 05:48:48;;;;;;;6.38;5.05;;;18.40;94.30;;;18.56;59.62;99539.47;5071496;28;20040;-75
2022/10/06 05:51:15;;;;;;;5.50;4.53;;;18.50;94.10;;;18.59;59.42;99551.78;5086530;28;20089;-75
2022/10/06 05:53:41;;;;;;;10.18;5.20;;;18.50;94.00;;;18.58;59.73;99555.66;5097931;28;20550;-75
2022/10/06 05:56:18;;;;;;;8.35;4.68;;;18.50;94.10;;;18.61;59.70;99560.53;5084530;28;20070;-75
2022/10/06 05:58:46;;;;;;;5.82;5.20;;;18.50;94.10;;;18.63;59.57;99561.84;5100349;28;20134;-75
2022/10/06 06:01:21;;;;;;;6.05;4.95;;;18.50;94.00;;;18.68;59.34;99565.59;5069038;28;20036;-74
2022/10/06 06:03:48;;;;;;;5.80;4.93;;;18.50;94.00;;;18.71;59.87;99564.97;5098469;28;20047;-74
2022/10/06 06:06:18;;;;;;;8.00;5.97;;;18.50;94.30;;;18.74;59.91;99569.84;5076676;28;20040;-74
2022/10/06 06:08:44;;;;;;;8.20;4.85;;;18.50;94.40;;;18.76;59.51;99579.44;5069607;28;20052;-75
2022/10/06 06:11:11;;;;;;;7.15;5.43;;;18.60;94.40;;;18.70;60.27;99586.16;5095216;28;20051;-75
2022/10/06 06:13:37;;;;;;;5.43;4.63;;;18.60;94.40;;;18.74;60.52;99580.84;5100498;28;20050;-75
2022/10/06 06:16:04;;;;;;;6.10;5.03;;;18.60;94.40;;;18.77;60.61;99585.75;5087090;28;20044;-75
2022/10/06 06:18:33;;;;;;;7.80;5.10;;;18.60;94.40;;;18.82;60.30;99591.13;5081718;28;20402;-75
2022/10/06 06:21:05;;;;;;;5.28;4.78;;;18.60;94.40;;;18.87;60.44;99591.03;5077586;28;20637;-75
2022/10/06 06:23:40;;;;;;;7.63;4.72;;;18.60;94.40;;;18.90;59.96;99598.66;5081704;28;20093;-75
2022/10/06 06:26:09;;;;;;;6.25;5.40;;;18.70;94.50;;;18.91;59.78;99596.72;5083174;28;20039;-75
2022/10/06 06:28:35;;;;;;;6.18;4.47;;;18.70;94.40;;;18.93;59.68;99600.78;5080315;28;20043;-75
2022/10/06 06:31:13;;;;;;;7.65;4.45;;;18.70;94.30;;;18.97;59.62;99598.22;5085171;28;20514;-75
2022/10/06 06:33:40;;;;;;;6.15;4.95;;;18.70;94.30;;;18.96;59.37;99607.63;5084383;28;20347;-75
2022/10/06 06:36:24;;;;;;;7.82;5.15;;;18.80;94.30;;;19.03;59.64;99608.81;5065764;28;20431;-75
2022/10/06 06:38:51;;;;;;;8.00;4.93;;;18.80;94.40;;;19.06;59.37;99621.13;5079942;28;20036;-75
2022/10/06 06:41:21;;;;;;;8.18;4.68;;;18.80;94.40;;;19.10;59.25;99624.88;5079063;28;20039;-75
2022/10/06 06:43:48;;;;;;;6.93;5.22;;;18.80;94.30;;;19.12;59.11;99622.63;5064608;28;20313;-75
2022/10/06 06:46:16;;;;;;;5.05;4.20;;;18.80;94.30;;;19.15;59.13;99634.94;5062619;28;20499;-75
2022/10/06 06:48:42;;;;;;;8.48;4.97;;;18.90;94.20;;;19.18;58.89;99623.31;5062409;28;20046;-75
2022/10/06 06:51:10;;;;;;;5.55;4.10;;;18.90;94.20;;;19.22;58.84;99640.84;5096382;28;20120;-75
2022/10/06 06:53:40;;;;;;;6.53;4.53;;;19.00;94.30;;;19.25;58.75;99623.69;5102193;28;20040;-75
2022/10/06 06:56:07;;;;;;;6.28;4.90;;;18.90;94.30;;;19.32;58.74;99631.53;5082244;28;20749;-75
2022/10/06 06:58:34;;;;;;;6.85;3.97;;;19.00;94.30;;;19.29;58.68;99636.53;5078661;28;20047;-75
2022/10/06 07:01:05;;;;;;;5.93;4.28;;;19.10;94.20;;;19.38;58.43;99639.34;5082118;28;20384;-75
2022/10/06 07:03:31;;;;;;;5.70;4.75;;;19.00;94.20;;;19.37;58.48;99636.91;5085651;28;20040;-75
2022/10/06 07:06:08;;;;;;;4.65;4.13;;;19.10;94.20;;;19.40;58.21;99639.84;5098309;28;20459;-75
2022/10/06 07:08:36;;;;;;;6.65;4.82;;;19.10;94.10;;;19.40;58.40;99647.28;5082946;28;20122;-75
2022/10/06 07:11:16;;;;;;;5.60;4.35;;;19.10;94.20;;;19.49;58.17;99653.69;5069427;28;20141;-75
2022/10/06 07:13:43;;;;;;;8.55;4.18;;;19.10;94.20;;;19.47;58.21;99655.94;5091376;28;20390;-75
2022/10/06 07:27:12;;;;;;;5.95;4.30;;;19.20;94.10;;;19.55;58.22;99662.63;5093915;28;20040;-75
2022/10/06 07:29:39;;;;;;;4.95;4.13;;;19.20;94.20;;;19.59;58.12;99666.34;5083972;28;20044;-75
2022/10/06 07:32:05;;;;;;;7.75;4.53;;;19.30;94.20;;;19.61;57.97;99662.16;5098609;28;20044;-75
2022/10/06 07:34:31;;;;;;;7.22;4.45;;;19.30;94.20;;;19.67;57.92;99668.41;5106399;28;20054;-75
2022/10/06 07:36:57;;;;;;;5.70;3.90;;;19.40;94.10;;;19.65;57.76;99665.94;5086619;28;20047;-75
2022/10/06 07:39:23;;;;;;;5.93;3.85;;;19.40;94.10;;;19.69;58.00;99663.38;5084852;28;20048;-75
2022/10/06 07:41:49;;;;;;;4.85;3.95;;;19.40;94.10;;;19.70;57.76;99663.09;5090882;28;20497;-75
2022/10/06 07:44:15;;;;;;;5.00;3.55;;;19.40;94.10;;;19.76;57.72;99668.47;5089256;28;20054;-75
2022/10/06 07:46:42;;;;;;;4.32;3.92;;;19.50;94.10;;;19.73;57.76;99670.72;5084291;28;20398;-75
2022/10/06 07:49:09;;;;;;;4.82;3.72;;;19.50;94.00;;;19.78;57.76;99667.03;5085276;28;20044;-75
2022/10/06 07:51:35;;;;;;;4.40;3.55;;;19.50;94.00;;;19.79;57.53;99668.63;5069057;28;20158;-76
2022/10/06 07:54:01;;;;;;;6.65;4.35;;;19.60;94.00;;;19.79;57.61;99665.06;5102827;28;20397;-75
2022/10/06 07:56:27;;;;;;;4.35;3.63;;;19.50;94.00;;;19.84;57.46;99673.22;5089589;28;20598;-76
2022/10/06 07:58:54;;;;;;;7.43;4.93;;;19.60;94.00;;;19.85;57.51;99680.34;5076168;28;20383;-75
2022/10/06 08:01:20;;;;;;;6.63;3.92;;;19.60;94.00;;;19.87;57.31;99670.66;5100047;28;20043;-75
2022/10/06 08:03:49;;;;;;;6.00;3.88;;;19.60;94.00;;;19.89;57.20;99681.34;5072933;28;20044;-76
2022/10/06 08:06:18;;;;;;;5.50;4.32;;;19.60;94.00;;;19.91;57.28;99687.34;5072242;28;20067;-76
2022/10/06 08:08:46;;;;;;;3.38;3.03;;;19.70;94.00;;;19.88;57.23;99690.75;5075292;28;20104;-75
2022/10/06 08:11:13;;;;;;;5.00;3.05;;;19.70;94.00;;;19.89;57.39;99698.66;5073618;28;20554;-75
2022/10/06 08:13:43;;;;;;;5.28;4.03;;;19.70;93.90;;;19.95;57.01;99704.88;5103330;28;20039;-75
2022/10/06 08:16:15;;;;;;;3.43;3.07;;;19.70;93.90;;;19.99;57.18;99707.81;5073418;28;20464;-75
2022/10/06 08:18:42;;;;;;;4.35;3.40;;;19.70;93.90;;;20.03;57.03;99697.81;5103066;28;20071;-75
2022/10/06 08:21:20;;;;;;;5.00;3.97;;;19.80;93.90;;;20.07;56.93;99699.59;5071918;28;20570;-75
2022/10/06 08:23:47;;;;;;;4.75;3.33;;;19.80;93.90;;;20.11;56.83;99708.84;5088437;28;20065;-75
2022/10/06 08:26:14;;;;;;;9.45;3.95;;;19.80;93.80;;;20.17;56.36;99720.56;5067403;28;20047;-75
2022/10/06 08:28:47;;;;;;;5.38;3.80;;;19.90;93.80;;;20.21;56.31;99715.25;5085238;28;20039;-75
2022/10/06 08:31:14;;;;;;;4.68;3.85;;;19.90;93.80;;;20.28;56.21;99713.66;5073152;28;20050;-75
2022/10/06 08:33:44;;;;;;;4.90;3.30;;;20.00;93.80;;;20.28;56.30;99721.13;5082688;28;20115;-75
2022/10/06 08:36:13;;;;;;;3.33;3.00;;;20.00;93.70;;;20.28;56.15;99719.16;5064688;28;20036;-75
2022/10/06 08:38:40;;;;;;;4.63;3.45;;;20.00;93.60;;;20.25;56.26;99724.47;5085833;28;20051;-75
2022/10/06 08:41:47;;;;;;;5.30;3.45;;;20.00;93.60;;;20.23;55.98;99729.53;5092700;28;20051;-75
2022/10/06 08:44:17;;;;;;;6.82;3.65;;;20.00;93.60;;;20.20;56.04;99728.22;5068941;28;20048;-75
2022/10/06 08:47:12;;;;;;;4.00;3.63;;;20.10;93.60;;;20.20;56.16;99730.97;5100313;28;20036;-76
2022/10/06 08:49:43;;;;;;;3.45;3.13;;;20.00;93.70;;;20.29;56.30;99739.25;5073005;28;20044;-75
2022/10/06 08:52:48;;;;;;;3.75;3.30;;;20.00;93.70;;;20.36;55.75;99734.13;5072638;28;20040;-75
2022/10/06 08:56:07;;;;;;;3.65;2.85;;;20.10;93.60;;;20.32;55.82;99742.19;5104908;28;20122;-75
2022/10/06 08:58:57;;;;;;;8.50;3.65;;;20.10;93.70;;;20.31;56.07;99743.34;5067663;28;20513;-75
2022/10/06 09:01:26;;;;;;;5.38;3.72;;;20.10;93.70;;;20.32;55.89;99738.63;5085164;28;20057;-75
2022/10/06 09:03:55;;;;;;;2.75;2.50;;;20.10;93.50;;;20.30;56.15;99738.13;5083304;28;20100;-75
2022/10/06 09:06:59;;;;;;;4.57;2.88;;;20.20;93.60;;;20.35;56.30;99751.78;5046326;28;20119;-75
2022/10/06 09:09:34;;;;;;;4.35;2.92;;;20.20;93.50;;;20.37;55.87;99746.75;5069851;28;20443;-75
2022/10/06 09:12:08;;;;;;;5.00;2.83;;;20.20;93.60;;;20.36;55.76;99750.66;5101561;28;20640;-75
2022/10/06 09:14:52;;;;;;;3.35;3.03;;;20.20;93.50;;;20.33;55.87;99748.53;5097633;28;20401;-75
2022/10/06 09:17:29;;;;;;;3.80;3.08;;;20.20;93.60;;;20.36;56.10;99750.66;5070392;28;20044;-75
2022/10/06 09:20:19;;;;;;;3.28;2.78;;;20.20;93.60;;;20.35;56.05;99746.25;5083675;28;20554;-76
2022/10/06 09:22:46;;;;;;;3.10;2.72;;;20.20;93.60;;;20.34;56.03;99745.44;5067276;28;20453;-75
2022/10/06 09:25:21;;;;;;;4.45;3.15;;;20.20;93.60;;;20.35;55.71;99755.34;5066832;28;20047;-76
2022/10/06 09:27:52;;;;;;;3.58;3.05;;;20.20;93.60;;;20.42;55.78;99757.66;5082742;28;20050;-76
2022/10/06 09:30:18;;;;;;;3.55;3.05;;;20.20;93.60;;;20.41;55.81;99752.47;5082043;28;20047;-75
2022/10/06 09:32:57;;;;;;;3.00;2.78;;;20.30;93.60;;;20.42;55.94;99760.41;5064555;28;20414;-75
2022/10/06 09:35:25;;;;;;;2.78;2.58;;;20.30;93.50;;;20.43;55.64;99759.28;5068280;28;20043;-76
2022/10/06 09:38:03;;;;;;;3.63;2.75;;;20.30;93.50;;;20.41;56.12;99752.47;5049751;28;20040;-75
2022/10/06 09:40:49;;;;;;;3.88;2.80;;;20.30;93.60;;;20.45;55.65;99750.69;5087993;28;20044;-76
2022/10/06 09:43:26;;;;;;;2.47;2.28;;;20.30;93.60;;;20.46;55.69;99757.84;5066860;28;20051;-75
2022/10/06 09:45:54;;;;;;;4.03;2.75;;;20.30;93.40;;;20.51;55.60;99763.22;5085287;28;20122;-75
2022/10/06 09:48:24;;;;;;;3.20;2.67;;;20.40;93.40;;;20.54;55.10;99757.91;5100731;28;20139;-75
2022/10/06 09:51:16;;;;;;;2.90;2.47;;;20.40;93.40;;;20.50;55.53;99753.31;5095976;28;20043;-76
2022/10/06 09:53:43;;;;;;;3.17;2.88;;;20.50;93.40;;;20.48;55.64;99767.44;5073788;28;20036;-75
2022/10/06 09:56:20;;;;;;;3.20;2.65;;;20.40;93.40;;;20.53;55.32;99767.28;5069991;28;20449;-75
2022/10/06 09:58:57;;;;;;;3.10;2.75;;;20.50;93.40;;;20.56;55.41;99765.88;5099878;28;20048;-75
2022/10/06 10:01:27;;;;;;;5.05;2.70;;;20.50;93.30;;;20.56;55.27;99765.88;5083994;28;20051;-76
2022/10/06 10:03:59;;;;;;;2.65;2.25;;;20.50;93.30;;;20.58;55.42;99769.94;5064844;28;20043;-75
2022/10/06 10:06:33;;;;;;;2.78;2.33;;;20.50;93.30;;;20.58;55.27;99767.19;5086998;28;20088;-75
2022/10/06 10:09:18;;;;;;;3.38;2.38;;;20.50;93.30;;;20.59;55.58;99768.78;5069249;28;20526;-75
2022/10/06 10:14:36;;;;;;;3.75;2.15;;;20.60;93.30;;;20.60;55.39;99767.66;5083338;28;20566;-75
2022/10/06 10:17:15;;;;;;;2.40;2.20;;;20.60;93.30;;;20.59;55.28;99771.56;5087131;28;20127;-75
2022/10/06 10:19:42;;;;;;;3.20;2.90;;;20.60;93.30;;;20.63;55.04;99776.44;5065239;28;20036;-75
2022/10/06 10:22:29;;;;;;;3.60;2.70;;;20.70;93.20;;;20.62;55.16;99780.31;5063192;28;20111;-75
2022/10/06 10:25:21;;;;;;;2.53;2.33;;;20.70;93.10;;;20.64;55.54;99787.16;5088458;28;20134;-75
2022/10/06 10:27:57;;;;;;;3.30;1.97;;;20.70;93.20;;;20.64;55.42;99780.84;5100243;28;20124;-75
2022/10/06 10:30:23;;;;;;;2.17;2.08;;;20.70;93.20;;;20.63;55.35;99776.44;5095966;28;20036;-75
2022/10/06 10:33:10;;;;;;;3.33;2.55;;;20.70;93.20;;;20.70;55.28;99787.81;5078655;28;20076;-75
2022/10/06 10:35:44;;;;;;;2.80;2.15;;;20.70;93.10;;;20.70;55.23;99783.13;5066170;28;20042;-75
2022/10/06 10:38:21;;;;;;;3.05;2.10;;;20.80;93.00;;;20.64;55.36;99786.34;5066793;28;20032;-75
2022/10/06 10:41:03;;;;;;;2.97;2.20;;;20.80;93.00;;;20.69;55.33;99783.44;5083772;28;20047;-75
2022/10/06 10:44:06;;;;;;;2.33;2.13;;;20.80;93.00;;;20.67;55.57;99783.75;5070971;28;20042;-75